createdAt,value
2022-08-28T00:04:18.294Z,21.60
2022-08-28T00:09:20.869Z,21.40
2022-08-28T00:14:23.400Z,21.50
2022-08-28T00:19:25.769Z,21.50
2022-08-28T00:24:27.892Z,20.70
2022-08-28T00:29:32.044Z,21.10
2022-08-28T00:34:34.665Z,21.50
2022-08-28T00:39:36.851Z,21.20
2022-08-28T00:44:40.192Z,21.50
2022-08-28T00:49:50.807Z,21.40
2022-08-28T00:55:10.119Z,21.30
2022-08-28T01:00:19.581Z,21.30
2022-08-28T01:05:22.479Z,21.40
2022-08-28T01:10:28.151Z,21.40
2022-08-28T01:15:35.868Z,21.40
2022-08-28T01:20:46.998Z,21.60
2022-08-28T01:25:49.311Z,21.00
2022-08-28T01:30:52.024Z,21.50
2022-08-28T01:35:54.439Z,21.50
2022-08-28T01:40:57.903Z,21.90
2022-08-28T01:46:04.007Z,21.50
2022-08-28T01:51:14.436Z,21.50
2022-08-28T01:56:17.882Z,21.40
2022-08-28T02:01:21.975Z,21.40
2022-08-28T02:06:25.748Z,21.10
2022-08-28T02:11:29.652Z,21.50
2022-08-28T02:16:31.808Z,21.20
2022-08-28T02:21:35.699Z,21.50
2022-08-28T02:26:38.497Z,21.40
2022-08-28T02:31:40.718Z,21.70
2022-08-28T02:36:43.208Z,21.40
2022-08-28T02:41:45.383Z,21.30
2022-08-28T02:46:47.560Z,22.20
2022-08-28T02:51:50.799Z,21.50
2022-08-28T02:56:55.314Z,21.60
2022-08-28T03:01:57.519Z,21.60
2022-08-28T03:06:59.697Z,21.70
2022-08-28T03:12:02.003Z,21.70
2022-08-28T03:17:04.370Z,21.60
2022-08-28T03:22:06.609Z,21.70
2022-08-28T03:27:08.938Z,21.70
2022-08-28T03:32:11.043Z,21.80
2022-08-28T03:37:13.573Z,21.90
2022-08-28T03:42:16.543Z,22.00
2022-08-28T03:47:18.763Z,21.90
2022-08-28T03:52:24.667Z,21.90
2022-08-28T03:57:27.142Z,21.80
2022-08-28T04:02:29.367Z,21.90
2022-08-28T04:07:31.557Z,22.20
2022-08-28T04:12:35.410Z,22.10
2022-08-28T04:17:39.552Z,21.90
2022-08-28T04:22:42.623Z,22.20
2022-08-28T04:27:48.663Z,22.00
2022-08-28T04:32:50.948Z,22.30
2022-08-28T04:37:54.739Z,22.30
2022-08-28T04:42:58.673Z,22.90
2022-08-28T04:48:03.201Z,22.60
2022-08-28T04:53:08.188Z,22.20
2022-08-28T04:58:10.239Z,22.50
2022-08-28T05:03:13.658Z,22.50
2022-08-28T05:08:17.800Z,22.60
2022-08-28T05:13:20.673Z,22.00
2022-08-28T05:18:23.772Z,22.70
2022-08-28T05:23:26.493Z,22.80
2022-08-28T05:28:29.171Z,22.90
2022-08-28T05:33:31.463Z,23.00
2022-08-28T05:38:34.861Z,23.00
2022-08-28T05:43:37.676Z,23.00
2022-08-28T05:48:40.687Z,23.00
2022-08-28T05:53:44.405Z,22.70
2022-08-28T05:58:46.848Z,22.90
2022-08-28T06:03:58.072Z,22.70
2022-08-28T06:09:03.983Z,22.70
2022-08-28T06:14:12.229Z,22.60
2022-08-28T06:19:14.785Z,22.50
2022-08-28T06:24:17.596Z,22.20
2022-08-28T06:29:21.212Z,22.30
2022-08-28T06:34:24.808Z,22.10
2022-08-28T06:39:27.078Z,21.80
2022-08-28T06:44:31.996Z,22.20
2022-08-28T06:49:35.690Z,22.10
2022-08-28T06:54:37.874Z,22.30
2022-08-28T06:59:40.373Z,21.80
2022-08-28T07:04:42.478Z,22.00
2022-08-28T07:09:44.929Z,22.60
2022-08-28T07:14:47.161Z,21.10
2022-08-28T07:19:49.528Z,21.30
2022-08-28T07:24:52.609Z,21.00
2022-08-28T07:29:54.791Z,21.20
2022-08-28T07:34:57.082Z,21.00
2022-08-28T07:39:59.308Z,20.70
2022-08-28T07:45:02.124Z,20.00
2022-08-28T07:50:04.736Z,20.80
2022-08-28T07:55:08.725Z,20.40
2022-08-28T08:00:13.066Z,20.40
2022-08-28T08:05:15.504Z,20.10
2022-08-28T08:10:19.892Z,20.00
2022-08-28T08:15:23.145Z,20.20
2022-08-28T08:20:25.458Z,19.40
2022-08-28T08:25:27.830Z,19.20
2022-08-28T08:30:32.392Z,19.30
2022-08-28T08:35:34.741Z,18.90
2022-08-28T08:40:36.948Z,18.80
2022-08-28T08:45:43.172Z,19.00
2022-08-28T08:50:45.472Z,18.70
2022-08-28T08:55:52.619Z,18.40
2022-08-28T09:01:20.165Z,18.30
2022-08-28T09:06:50.466Z,17.00
2022-08-28T09:12:14.811Z,16.50
2022-08-28T09:17:19.941Z,16.10
2022-08-28T09:22:22.755Z,15.50
2022-08-28T09:27:34.782Z,16.10
2022-08-28T09:32:57.933Z,14.70
2022-08-28T09:38:21.916Z,14.40
2022-08-28T09:43:31.458Z,14.20
2022-08-28T09:48:38.709Z,14.30
2022-08-28T09:54:00.762Z,14.20
2022-08-28T09:59:10.613Z,13.80
2022-08-28T10:09:36.702Z,12.70
2022-08-28T10:14:58.182Z,13.10
2022-08-28T10:20:07.777Z,12.00
2022-08-28T10:25:15.621Z,11.40
2022-08-28T10:30:22.910Z,11.80
2022-08-28T10:35:36.793Z,11.30
2022-08-28T10:40:57.399Z,10.60
2022-08-28T10:46:09.428Z,10.30
2022-08-28T10:51:35.487Z,10.20
2022-08-28T10:56:43.791Z,10.40
2022-08-28T11:01:47.290Z,10.50
2022-08-28T11:07:02.427Z,9.90
2022-08-28T11:12:10.627Z,9.60
2022-08-28T11:17:22.015Z,8.70
2022-08-28T11:22:42.628Z,8.50
2022-08-28T11:28:17.968Z,8.10
2022-08-28T11:33:41.554Z,8.40
2022-08-28T11:38:43.688Z,8.30
2022-08-28T11:43:46.681Z,8.00
2022-08-28T11:48:51.999Z,6.90
2022-08-28T11:54:03.525Z,7.20
2022-08-28T11:59:17.495Z,6.50
2022-08-28T12:04:24.390Z,5.80
2022-08-28T12:09:26.558Z,5.20
2022-08-28T12:14:28.650Z,4.80
2022-08-28T12:19:43.060Z,5.00
2022-08-28T12:25:02.724Z,4.20
2022-08-28T12:30:05.777Z,4.00
2022-08-28T12:35:23.584Z,3.50
2022-08-28T12:40:55.845Z,3.70
2022-08-28T12:46:04.025Z,3.10
2022-08-28T12:51:21.454Z,1.90
2022-08-28T12:56:26.137Z,1.60
2022-08-28T13:01:32.409Z,1.20
2022-08-28T13:06:38.541Z,1.00
2022-08-28T13:11:46.875Z,1.00
2022-08-28T13:16:49.208Z,1.00
2022-08-28T13:22:01.904Z,1.00
2022-08-28T13:27:17.915Z,1.00
2022-08-28T13:32:20.303Z,1.00
2022-08-28T13:37:41.677Z,1.00
2022-08-28T13:42:44.743Z,1.00
2022-08-28T13:47:46.894Z,1.00
2022-08-28T13:52:49.003Z,1.00
2022-08-28T13:57:51.503Z,1.00
2022-08-28T14:03:12.410Z,1.00
2022-08-28T14:08:14.688Z,1.00
2022-08-28T14:13:17.315Z,1.00
2022-08-28T14:18:20.231Z,1.00
2022-08-28T14:23:23.050Z,1.00
2022-08-28T14:28:25.199Z,1.00
2022-08-28T14:33:27.376Z,1.00
2022-08-28T14:38:30.102Z,1.00
2022-08-28T14:43:32.284Z,1.00
2022-08-28T14:48:34.648Z,1.00
2022-08-28T14:53:37.264Z,1.00
2022-08-28T14:58:39.496Z,1.00
2022-08-28T15:03:41.728Z,1.00
2022-08-28T15:08:44.143Z,1.00
2022-08-28T15:13:49.982Z,1.00
2022-08-28T15:18:54.964Z,1.00
2022-08-28T15:23:57.824Z,1.00
2022-08-28T15:29:03.669Z,1.00
2022-08-28T15:34:13.237Z,1.00
2022-08-28T15:39:34.900Z,1.00
2022-08-28T15:44:37.432Z,1.00
2022-08-28T15:49:48.563Z,1.00
2022-08-28T15:54:52.670Z,1.00
2022-08-28T15:59:54.894Z,1.00
2022-08-28T16:04:57.044Z,1.00
2022-08-28T16:10:00.231Z,1.00
2022-08-28T16:15:02.420Z,1.00
2022-08-28T16:20:06.514Z,1.00
2022-08-28T16:25:14.618Z,1.00
2022-08-28T16:30:17.492Z,1.00
2022-08-28T16:35:20.827Z,1.00
2022-08-28T16:40:24.471Z,1.00
2022-08-28T16:45:26.671Z,1.00
2022-08-28T16:50:32.328Z,1.00
2022-08-28T16:55:35.636Z,1.00
2022-08-28T17:00:44.263Z,1.00
2022-08-28T17:05:57.001Z,1.00
2022-08-28T17:10:59.321Z,1.00
2022-08-28T17:16:02.486Z,1.00
2022-08-28T17:21:24.141Z,1.00
2022-08-28T17:26:26.483Z,1.00
2022-08-28T17:31:28.752Z,1.00
2022-08-28T17:36:33.218Z,1.00
2022-08-28T17:41:36.415Z,1.00
2022-08-28T17:46:38.599Z,1.00
2022-08-28T17:51:43.677Z,1.00
2022-08-28T17:56:46.737Z,1.00
2022-08-28T18:01:49.820Z,1.00
2022-08-28T18:06:54.335Z,1.30
2022-08-28T18:11:56.948Z,1.90
2022-08-28T18:16:59.410Z,1.80
2022-08-28T18:22:01.663Z,2.00
2022-08-28T18:27:04.345Z,2.40
2022-08-28T18:32:07.931Z,2.20
2022-08-28T18:37:11.259Z,2.90
2022-08-28T18:42:13.488Z,3.70
2022-08-28T18:47:15.903Z,4.60
2022-08-28T18:52:18.666Z,4.90
2022-08-28T18:57:21.675Z,5.20
2022-08-28T19:02:27.743Z,5.60
2022-08-28T19:07:30.020Z,6.10
2022-08-28T19:12:33.281Z,6.70
2022-08-28T19:17:37.509Z,7.00
2022-08-28T19:22:39.769Z,7.60
2022-08-28T19:27:42.887Z,8.00
2022-08-28T19:32:46.639Z,8.50
2022-08-28T19:37:51.033Z,9.20
2022-08-28T19:42:53.170Z,9.40
2022-08-28T19:47:55.696Z,10.10
2022-08-28T19:52:57.931Z,10.40
2022-08-28T19:58:03.939Z,10.90
2022-08-28T20:03:06.382Z,11.30
2022-08-28T20:08:08.752Z,11.60
2022-08-28T20:13:11.713Z,11.40
2022-08-28T20:18:14.625Z,12.00
2022-08-28T20:23:18.404Z,12.50
2022-08-28T20:28:20.511Z,12.80
2022-08-28T20:33:22.754Z,12.90
2022-08-28T20:38:25.090Z,13.30
2022-08-28T20:43:27.247Z,13.30
2022-08-28T20:48:30.031Z,13.60
2022-08-28T20:53:37.709Z,13.80
2022-08-28T20:58:40.309Z,13.90
2022-08-28T21:03:42.467Z,14.20
2022-08-28T21:08:45.030Z,14.40
2022-08-28T21:13:47.177Z,14.50
2022-08-28T21:19:12.108Z,14.60
2022-08-28T21:24:13.726Z,14.60
2022-08-28T21:29:16.713Z,14.40
2022-08-28T21:34:21.813Z,14.40
2022-08-28T21:39:24.003Z,14.30
2022-08-28T21:44:26.232Z,14.30
2022-08-28T21:49:29.118Z,14.10
2022-08-28T21:54:31.697Z,14.00
2022-08-28T21:59:37.694Z,14.00
2022-08-28T22:04:40.375Z,13.60
2022-08-28T22:09:42.826Z,13.80
2022-08-28T22:14:45.043Z,13.80
2022-08-28T22:19:47.193Z,13.90
2022-08-28T22:24:49.328Z,13.70
2022-08-28T22:29:51.541Z,13.60
2022-08-28T22:34:55.186Z,12.90
2022-08-28T22:39:59.148Z,13.50
2022-08-28T22:45:01.807Z,13.10
2022-08-28T22:50:04.885Z,13.50
2022-08-28T22:55:12.515Z,13.50
2022-08-28T23:00:19.543Z,13.40
2022-08-28T23:05:23.074Z,13.30
2022-08-28T23:10:48.260Z,13.20
2022-08-28T23:15:49.364Z,13.20
2022-08-28T23:20:52.463Z,13.40
2022-08-28T23:25:54.666Z,13.30
2022-08-28T23:30:57.082Z,14.10
2022-08-28T23:35:59.281Z,13.60
2022-08-28T23:41:02.020Z,13.50
2022-08-28T23:46:05.354Z,13.10
2022-08-28T23:51:14.985Z,13.80
2022-08-28T23:56:17.861Z,13.80
